KCEW/CEW METAR and TAF weather

Enter ICAO airport designator
Station Type Date Time Source
KCEW METAR 2019/12/11 14:53 UTC NOAA

KCEW 111453Z AUTO 02006KT 9SM -RA BKN055 OVC110 07/04 A3041 RMK AO2 SLP296 6//// T00670044 53031 PNO


Station Type Date Time Source
KCEW Decoded METAR 2019/12/11 14:53 UTC NOAA

CRESTVIEW SIKES AIRPORT, FL, United States (KCEW) 30-46N 086-31W 55M
Dec 11, 2019 - 09:53 AM EST / 2019.12.11 1453 UTC
Wind: from the NNE (020 degrees) at 7 MPH (6 KT):0
Visibility: 9 mile(s):0
Sky conditions: overcast
Weather: light rain
Temperature: 44.1 F (6.7 C)
Dew Point: 39.9 F (4.4 C)
Relative Humidity: 85%
Pressure (altimeter): 30.41 in. Hg (1029 hPa)
Pressure tendency: 0.09 inches (3.1 hPa) higher than three hours ago
ob: KCEW 111453Z AUTO 02006KT 9SM -RA BKN055 OVC110 07/04 A3041 RMK AO2 SLP296 6//// T00670044 53031 PNO
cycle: 15

Station Type Date Time Source
KCEW TAF UTC NOAA

Error!

Example: see airport list